• Join FlightAware (Why Join?)
  • Login
  • US Flag 
05:00PM EST


 

Airport Tracker/Info


-or-


 

Live Flight TrackerFlight Track Log ✈ N402CT ✈ 19-Feb-2012 ✈ CYTZ - KTEB

Flight Track Log - Related Links

Times and Time Zones

All times are in EST time to prevent confusion due to time zone crossing. See the N402CT flight status page for this flight to view local times or setup timezone preferences in your user account.

Time Position Orientation Groundspeed Altitude Reporting Facility
EST Latitude Longitude Course Direction KTS MPH feet Rate Location/Type
06:19PM 43.5890 -79.3094 293° West  Level FlightAware Approximate
06:21PM 43.6167 -79.4000 160° South 160 184 1,200  Level Toronto Center
06:22PM 43.5833 -79.3833 125° Southeast 180 207 3,000 1,020 Climbing Toronto Center
06:23PM 43.5500 -79.3167 109° East 230 265 3,300 1,500 Climbing Toronto Center
06:24PM 43.5333 -79.2500 105° East 200 230 6,000 2,220 Climbing Toronto Center
06:25PM 43.5167 -79.1667 125° Southeast 180 207 7,800 1,860 Climbing Toronto Center
06:26PM 43.4833 -79.1000 109° East 190 219 9,800 1,920 Climbing Toronto Center
06:27PM 43.4667 -79.0333 109° East 190 219 11,700 1,920 Climbing Toronto Center
06:28PM 43.4500 -78.9667 125° Southeast 200 230 13,700 1,920 Climbing Toronto Center
06:29PM 43.4167 -78.9000 125° Southeast 210 242 15,600 1,920 Climbing Toronto Center
06:30PM 43.3833 -78.8333 115° Southeast 220 253 17,600 1,800 Climbing Toronto Center
06:31PM 43.3500 -78.7333 144° Southeast 220 253 19,300 1,680 Climbing Toronto Center
06:32PM 43.3167 -78.7000 124° Southeast 220 253 21,000 840 Climbing Toronto Center
06:33PM 43.2667 -78.6000 118° Southeast 250 288 21,000  Level Toronto Center
06:34PM 43.2556 -78.5708 124° Southeast 257 296 21,000  Level Cleveland Center
06:35PM 43.2081 -78.4756 126° Southeast 292 336 21,000  Level Cleveland Center
06:36PM 43.1539 -78.3750 125° Southeast 297 342 21,000  Level Cleveland Center
06:37PM 43.1064 -78.2828 123° Southeast 303 349 21,000  Level Cleveland Center
06:38PM 43.0606 -78.1878 123° Southeast 303 349 21,000  Level Cleveland Center
06:39PM 43.0147 -78.0903 123° Southeast 298 343 21,000  Level Cleveland Center
06:40PM 42.9689 -77.9956 125° Southeast 298 343 21,000  Level Cleveland Center
06:41PM 42.9211 -77.9039 124° Southeast 298 343 21,000  Level Cleveland Center
06:42PM 42.8750 -77.8122 120° Southeast 298 343 21,000  Level Cleveland Center
06:43PM 42.8331 -77.7122 103° East 298 343 21,000  Level Cleveland Center
06:45PM 42.7964 -77.4978 102° East 286 329 21,000  Level Boston Center
06:46PM 42.7786 -77.3831 120° Southeast 293 337 21,000  Level Boston Center
06:46PM 42.7500 -77.3167 73° East 310 357 21,000  Level Toronto Center
06:47PM 42.7606 -77.2683 102° East 306 352 21,000  Level Boston Center
06:48PM 42.7425 -77.1539 102° East 306 352 21,000  Level Boston Center
06:49PM 42.7258 -77.0508 102° East 306 352 21,000  Level Boston Center
06:50PM 42.7075 -76.9361 102° East 306 352 21,000  Level Boston Center
06:51PM 42.6892 -76.8192 103° East 306 352 21,000  Level Boston Center
06:52PM 42.6706 -76.7075 108° East 306 352 21,000  Level Boston Center
06:53PM 42.6433 -76.5956 120° Southeast 301 346 21,000  Level Boston Center
06:54PM 42.5972 -76.4881 122° Southeast 301 346 21,000  Level Boston Center
06:55PM 42.5506 -76.3864 121° Southeast 306 352 21,000  Level Boston Center
06:56PM 42.5061 -76.2878 120° Southeast 306 352 21,000  Level Boston Center
06:57PM 42.4675 -76.1981 123° Southeast 306 352 21,000  Level Boston Center
06:58PM 42.4225 -76.1025 121° Southeast 306 352 21,000  Level Boston Center
06:59PM 42.3778 -76.0014 122° Southeast 312 359 21,000 -60 Level Boston Center
07:00PM 42.3308 -75.9003 121° Southeast 312 359 20,900 -540 Descending Boston Center
07:01PM 42.2842 -75.7967 120° Southeast 312 359 20,000 -840 Descending Boston Center
07:02PM 42.2372 -75.6875 122° Southeast 324 373 19,300 -660 Descending Boston Center
07:03PM 42.1900 -75.5869 123° Southeast 324 373 18,700 -660 Descending Boston Center
07:04PM 42.1406 -75.4839 122° Southeast 324 373 18,000 -660 Descending Boston Center
07:05PM 42.0933 -75.3836 120° Southeast 324 373 17,400 -540 Descending Boston Center
07:06PM 42.0500 -75.2836 116° Southeast 319 367 17,000 -360 Descending Boston Center
07:07PM 42.0128 -75.1814 118° Southeast 308 354 16,700 -840 Descending Boston Center
07:08PM 41.9736 -75.0819 117° Southeast 301 346 15,400 -1,320 Descending Boston Center
07:09PM 41.9303 -74.9683 129° Southeast 301 346 14,100 -1,200 Descending Boston Center
07:10PM 41.8842 -74.8914 135° Southeast 301 346 13,000 -1,260 Descending Boston Center
07:11PM 41.8233 -74.8108 137° Southeast 290 334 11,600 -1,320 Descending Boston Center
07:12PM 41.7706 -74.7450 135° Southeast 285 328 10,400 -1,320 Descending Boston Center
07:13PM 41.7094 -74.6619 142° Southeast 285 328 9,000 -1,320 Descending Boston Center
07:14PM 41.6544 -74.6044 177° South 285 328 7,800 -1,320 Descending Boston Center
07:15PM 41.5692 -74.5989 179° South 268 308 6,400 -900 Descending Boston Center
07:16PM 41.5044 -74.5967 186° South 274 315 6,000 -180 Descending Boston Center
07:17PM 41.3667 -74.6167 191° South 245 282 6,000  Level New York TRACON
07:18PM 41.3000 -74.6333 191° South 244 281 6,000 -540 Level New York TRACON
07:19PM 41.2333 -74.6500 191° South 257 296 5,000 -1,020 Descending New York TRACON
07:20PM 41.1667 -74.6667 169° South 256 295 4,100 -540 Descending New York TRACON
07:21PM 41.1000 -74.6500 166° South 238 274 4,000 -60 Descending New York TRACON
07:22PM 41.0500 -74.6333 159° South 235 270 4,000 -480 Level New York TRACON
07:23PM 40.9833 -74.6000 159° South 257 296 3,100 -540 Descending New York TRACON
07:24PM 40.9167 -74.5667 150° Southeast 243 280 3,000 -60 Descending New York TRACON
07:25PM 40.8500 -74.5167 123° Southeast 236 272 3,000  Level New York TRACON
07:27PM 40.8167 -74.4500 123° Southeast 225 259 3,000  Level New York TRACON
07:27PM 40.7833 -74.3833 105° East 222 255 3,000 -540 Level New York TRACON
07:28PM 40.7667 -74.3000 114° Southeast 230 265 2,000 -540 Descending New York TRACON
07:29PM 40.7500 -74.2500 72° East 185 213 2,000 -240 Level New York TRACON
07:31PM 40.7667 -74.1833 37° Northeast 170 196 1,600 -300 Descending New York TRACON
07:31PM 40.8000 -74.1500 57° Northeast 148 170 1,500 -420 Descending New York TRACON
07:32PM 40.8167 -74.1167 57° Northeast 124 143 900 -600 Descending New York TRACON
07:33PM 40.8333 -74.0833 57° Northeast 97 112 300 -600 Descending New York TRACON